Time;durP1;ratioP1;P1;durP2;ratioP2;P2;SDS_P1;SDS_P2;PMS_P1;PMS_P2;Temp;Humidity;BMP_temperature;BMP_pressure;BME280_temperature;BME280_humidity;BME280_pressure;Samples;Min_cycle;Max_cycle;Signal;HPM_P1;HPM_P2
2023/04/23 00:02:14;;;;;;;37.22;26.63;;;8.50;99.90;;;;;;5059658;28;20510;-83
2023/04/23 00:04:48;;;;;;;40.70;27.52;;;8.50;99.90;;;;;;5057832;28;20074;-82
2023/04/23 00:07:15;;;;;;;41.97;26.90;;;8.50;99.90;;;;;;5060378;28;20040;-82
2023/04/23 00:09:43;;;;;;;40.58;26.15;;;8.50;99.90;;;;;;5053762;28;20082;-83
2023/04/23 00:12:09;;;;;;;42.78;28.48;;;8.50;99.90;;;;;;5068042;28;20051;-83
2023/04/23 00:14:35;;;;;;;41.78;27.55;;;8.50;99.90;;;;;;5066419;28;20118;-81
2023/04/23 00:17:01;;;;;;;39.90;26.73;;;8.40;99.90;;;;;;5053168;28;20453;-83
2023/04/23 00:19:26;;;;;;;42.53;28.83;;;8.40;99.90;;;;;;5054827;28;20040;-83
2023/04/23 00:21:52;;;;;;;42.33;27.05;;;8.40;99.90;;;;;;5061542;28;20098;-82
2023/04/23 00:24:19;;;;;;;40.90;27.73;;;8.40;99.90;;;;;;5055412;28;20048;-83
2023/04/23 00:26:45;;;;;;;44.25;29.60;;;8.40;99.90;;;;;;5051398;28;20042;-83
2023/04/23 00:29:10;;;;;;;45.55;29.50;;;8.40;99.90;;;;;;5067042;28;20035;-82
2023/04/23 00:31:36;;;;;;;42.80;27.73;;;8.30;99.90;;;;;;5045887;28;20047;-82
2023/04/23 00:34:02;;;;;;;44.53;29.00;;;8.30;99.90;;;;;;5062008;28;20028;-82
2023/04/23 00:36:27;;;;;;;49.85;30.55;;;8.30;99.90;;;;;;5063165;28;20507;-82
2023/04/23 00:38:53;;;;;;;49.42;32.25;;;8.30;99.90;;;;;;5067818;28;20032;-83
2023/04/23 00:41:18;;;;;;;51.67;31.13;;;8.30;99.90;;;;;;5063263;28;20039;-83
2023/04/23 00:43:44;;;;;;;47.78;31.25;;;8.30;99.90;;;;;;5049045;28;20067;-81
2023/04/23 00:46:11;;;;;;;47.60;31.27;;;8.30;99.90;;;;;;5057328;28;20090;-83
2023/04/23 00:48:38;;;;;;;48.53;31.65;;;8.30;99.90;;;;;;5062453;28;20081;-82
2023/04/23 00:51:05;;;;;;;50.33;32.88;;;8.30;99.90;;;;;;5062851;28;20119;-83
2023/04/23 00:53:32;;;;;;;59.42;35.42;;;8.30;99.90;;;;;;5061350;28;20032;-82
2023/04/23 00:55:58;;;;;;;55.03;34.20;;;8.30;99.90;;;;;;5071010;28;20553;-83
2023/04/23 00:58:24;;;;;;;57.17;35.20;;;8.30;99.90;;;;;;5042093;28;20073;-83
2023/04/23 01:00:51;;;;;;;56.05;35.90;;;8.30;99.90;;;;;;5069000;28;20032;-83
2023/04/23 01:03:17;;;;;;;60.47;37.25;;;8.30;99.90;;;;;;5054512;28;20060;-83
2023/04/23 01:05:43;;;;;;;60.58;36.95;;;8.30;99.90;;;;;;5050021;28;20040;-84
2023/04/23 01:08:14;;;;;;;65.03;39.38;;;8.30;99.90;;;;;;5038449;28;20041;-83
2023/04/23 01:10:44;;;;;;;68.47;39.50;;;8.20;99.90;;;;;;5065847;28;20029;-83
2023/04/23 01:13:12;;;;;;;68.43;42.40;;;8.20;99.90;;;;;;5068371;28;20043;-83
2023/04/23 01:15:38;;;;;;;71.00;42.78;;;8.20;99.90;;;;;;5061574;28;20055;-83
2023/04/23 01:18:06;;;;;;;74.80;44.55;;;8.20;99.90;;;;;;5072798;28;20032;-81
2023/04/23 01:20:32;;;;;;;84.95;46.97;;;8.20;99.90;;;;;;5055091;28;20043;-82
2023/04/23 01:22:58;;;;;;;81.07;46.15;;;8.20;99.90;;;;;;5072076;28;20043;-83
2023/04/23 01:25:24;;;;;;;88.50;49.75;;;8.20;99.90;;;;;;5044724;28;20032;-82
2023/04/23 01:27:50;;;;;;;86.95;48.33;;;8.20;99.90;;;;;;5052662;28;20036;-81
2023/04/23 01:30:15;;;;;;;85.43;47.80;;;8.20;99.90;;;;;;5072310;28;20028;-83
2023/04/23 01:32:42;;;;;;;84.75;47.08;;;8.20;99.90;;;;;;5055497;28;20237;-83
2023/04/23 01:35:09;;;;;;;95.93;51.33;;;8.20;99.90;;;;;;5050335;28;20044;-83
2023/04/23 01:37:36;;;;;;;85.55;49.70;;;8.30;99.90;;;;;;5055521;28;20499;-83
2023/04/23 01:40:02;;;;;;;93.00;51.88;;;8.30;99.90;;;;;;5063628;28;20044;-81
2023/04/23 01:42:27;;;;;;;89.43;48.40;;;8.30;99.90;;;;;;5045634;28;20541;-83
2023/04/23 01:44:53;;;;;;;86.22;49.50;;;8.20;99.90;;;;;;5048442;28;20036;-83
2023/04/23 01:47:20;;;;;;;87.25;48.97;;;8.20;99.90;;;;;;5068059;28;20047;-83
2023/04/23 01:49:45;;;;;;;83.15;47.58;;;8.20;99.90;;;;;;5036221;28;20039;-84
2023/04/23 01:52:11;;;;;;;77.18;47.10;;;8.20;99.90;;;;;;5048254;28;20041;-83
2023/04/23 01:54:36;;;;;;;91.10;49.38;;;8.20;99.90;;;;;;5052973;28;20545;-83
2023/04/23 01:57:02;;;;;;;82.20;47.00;;;8.20;99.90;;;;;;5051642;28;20044;-83
2023/04/23 01:59:28;;;;;;;85.45;48.35;;;8.10;99.90;;;;;;5046346;28;20150;-83
2023/04/23 02:01:53;;;;;;;82.78;46.40;;;8.10;99.90;;;;;;5063631;28;20044;-83
2023/04/23 02:04:19;;;;;;;90.72;50.55;;;8.10;99.90;;;;;;5039680;28;20028;-83
2023/04/23 02:06:48;;;;;;;92.22;50.63;;;8.10;99.90;;;;;;5043583;28;20044;-81
2023/04/23 02:09:14;;;;;;;87.75;50.95;;;8.00;99.90;;;;;;5040982;28;20028;-82
2023/04/23 02:11:40;;;;;;;82.85;48.97;;;8.00;99.90;;;;;;5044689;28;20047;-83
2023/04/23 02:14:06;;;;;;;90.75;47.85;;;7.90;99.90;;;;;;5050749;28;20119;-83
2023/04/23 02:16:33;;;;;;;83.10;47.55;;;7.90;99.90;;;;;;5062439;28;20036;-83
2023/04/23 02:18:59;;;;;;;91.57;48.17;;;7.80;99.90;;;;;;5051444;28;20044;-83
2023/04/23 02:21:26;;;;;;;79.50;44.30;;;7.70;99.90;;;;;;5047111;28;20032;-83
2023/04/23 02:23:51;;;;;;;85.45;46.85;;;7.60;99.90;;;;;;5056005;28;20516;-83
2023/04/23 02:26:17;;;;;;;87.57;47.92;;;7.60;99.90;;;;;;5071956;28;20119;-82
2023/04/23 02:28:44;;;;;;;93.63;50.33;;;7.50;99.90;;;;;;5058444;28;20042;-81
2023/04/23 02:31:09;;;;;;;82.88;45.38;;;7.40;99.90;;;;;;5045090;28;20111;-83
2023/04/23 02:33:35;;;;;;;85.05;46.72;;;7.40;99.90;;;;;;5058250;28;20468;-83
2023/04/23 02:36:01;;;;;;;83.72;46.97;;;7.30;99.90;;;;;;5067377;28;20032;-83
2023/04/23 02:38:26;;;;;;;85.55;46.80;;;7.30;99.90;;;;;;5057574;28;20119;-83
2023/04/23 02:40:52;;;;;;;84.32;47.90;;;7.30;99.90;;;;;;5051693;28;20415;-83
2023/04/23 02:43:17;;;;;;;90.65;50.80;;;7.30;99.90;;;;;;5060957;28;20118;-81
2023/04/23 02:45:43;;;;;;;93.43;50.35;;;7.30;99.90;;;;;;5062091;28;20055;-83
2023/04/23 02:48:09;;;;;;;91.25;48.45;;;7.30;99.90;;;;;;5069793;28;20459;-83
2023/04/23 02:50:37;;;;;;;98.40;51.80;;;7.20;99.90;;;;;;5065757;28;20059;-83
2023/04/23 02:53:04;;;;;;;95.88;49.80;;;7.20;99.90;;;;;;5068288;28;20043;-82
2023/04/23 02:55:30;;;;;;;87.63;49.30;;;7.10;99.90;;;;;;5058938;28;20687;-82
2023/04/23 02:57:57;;;;;;;83.85;46.42;;;7.10;99.90;;;;;;5065490;28;20047;-82
2023/04/23 03:00:23;;;;;;;87.30;48.63;;;7.00;99.90;;;;;;5062589;28;20162;-82
2023/04/23 03:02:49;;;;;;;76.82;44.08;;;7.00;99.90;;;;;;5046281;28;20404;-83
2023/04/23 03:05:14;;;;;;;83.47;46.58;;;7.00;99.90;;;;;;5063133;28;20047;-82
2023/04/23 03:07:40;;;;;;;97.00;50.85;;;7.00;99.90;;;;;;5060747;28;20040;-82
2023/04/23 03:10:07;;;;;;;93.22;50.65;;;7.00;99.90;;;;;;5059636;28;20040;-83
2023/04/23 03:12:32;;;;;;;86.63;47.35;;;7.00;99.90;;;;;;5051732;28;20037;-82
2023/04/23 03:14:58;;;;;;;86.93;48.78;;;7.00;99.90;;;;;;5058638;28;20389;-83
2023/04/23 03:17:23;;;;;;;81.60;46.63;;;6.90;99.90;;;;;;5064878;28;20028;-83
2023/04/23 03:19:49;;;;;;;81.88;47.25;;;7.00;99.90;;;;;;5059289;28;20518;-83
2023/04/23 03:22:14;;;;;;;85.93;47.67;;;6.90;99.90;;;;;;5061971;28;20447;-82
2023/04/23 03:24:40;;;;;;;85.50;46.03;;;6.90;99.90;;;;;;5073278;28;20039;-82
2023/04/23 03:27:06;;;;;;;119.10;49.72;;;6.90;99.90;;;;;;5043548;28;20055;-82
2023/04/23 03:29:31;;;;;;;81.45;45.90;;;6.90;99.90;;;;;;5044937;28;20064;-82
2023/04/23 03:31:57;;;;;;;99.07;44.47;;;6.90;99.90;;;;;;5062586;28;20028;-82
2023/04/23 03:34:22;;;;;;;542.47;88.22;;;6.90;99.90;;;;;;5054069;28;20042;-83
2023/04/23 03:36:49;;;;;;;173.25;50.10;;;6.90;99.90;;;;;;5067317;28;20032;-83
2023/04/23 03:39:14;;;;;;;441.65;87.82;;;6.90;99.90;;;;;;5048047;28;20128;-83
2023/04/23 03:41:40;;;;;;;172.57;55.20;;;6.90;99.90;;;;;;5066975;28;20068;-83
2023/04/23 03:44:05;;;;;;;266.63;67.80;;;7.00;99.90;;;;;;5055728;28;20037;-83
2023/04/23 03:46:31;;;;;;;123.57;53.05;;;7.10;99.90;;;;;;5057039;28;20661;-83
2023/04/23 03:48:56;;;;;;;379.35;85.85;;;7.10;99.90;;;;;;5041639;28;20690;-83
2023/04/23 03:51:22;;;;;;;133.05;59.65;;;7.10;99.90;;;;;;5062263;28;20397;-83
2023/04/23 03:53:48;;;;;;;126.78;56.40;;;7.10;99.90;;;;;;5068612;28;20036;-83
2023/04/23 03:56:14;;;;;;;253.82;73.63;;;7.20;99.90;;;;;;5059450;28;20044;-83
2023/04/23 03:58:39;;;;;;;243.18;74.32;;;7.20;99.90;;;;;;5054324;28;20039;-82
2023/04/23 04:01:05;;;;;;;541.22;95.75;;;7.20;99.90;;;;;;5065077;28;20044;-83
2023/04/23 04:03:31;;;;;;;292.58;73.75;;;7.30;99.90;;;;;;5043269;28;20123;-83
2023/04/23 04:05:56;;;;;;;475.67;90.20;;;7.30;99.90;;;;;;5063596;28;20551;-83
2023/04/23 04:08:22;;;;;;;564.83;103.20;;;7.30;99.90;;;;;;5071951;28;20035;-82
2023/04/23 04:10:48;;;;;;;303.25;74.22;;;7.30;99.90;;;;;;5064213;28;20111;-82
2023/04/23 04:13:14;;;;;;;272.25;66.10;;;7.30;99.90;;;;;;5054456;28;20090;-83
2023/04/23 04:15:40;;;;;;;566.20;99.63;;;7.30;99.90;;;;;;5063146;28;20032;-82
2023/04/23 04:18:06;;;;;;;122.32;59.30;;;7.30;99.90;;;;;;5057557;28;20086;-83
2023/04/23 04:20:31;;;;;;;454.42;89.03;;;7.30;99.90;;;;;;5041639;28;20051;-82
2023/04/23 04:22:57;;;;;;;120.50;60.30;;;7.10;99.90;;;;;;5070598;28;20024;-83
2023/04/23 04:25:23;;;;;;;328.63;79.53;;;7.30;99.90;;;;;;5054982;28;20035;-82
2023/04/23 04:27:49;;;;;;;148.82;62.05;;;7.30;99.90;;;;;;5067160;28;20033;-82
2023/04/23 04:30:14;;;;;;;149.02;60.92;;;7.30;99.90;;;;;;5055265;28;20519;-82
2023/04/23 04:32:41;;;;;;;184.90;71.10;;;7.40;99.90;;;;;;5052903;28;20055;-83
2023/04/23 04:35:07;;;;;;;214.38;78.00;;;7.10;99.90;;;;;;5071150;28;20121;-82
2023/04/23 04:37:34;;;;;;;105.13;56.10;;;7.40;99.90;;;;;;5057956;28;20051;-83
2023/04/23 04:40:02;;;;;;;136.57;63.65;;;7.40;99.90;;;;;;5073167;28;20028;-84
2023/04/23 04:42:28;;;;;;;148.10;65.72;;;7.40;99.90;;;;;;5044618;28;20033;-82
2023/04/23 04:44:53;;;;;;;138.90;63.78;;;7.50;99.90;;;;;;5044528;28;20036;-83
2023/04/23 04:47:19;;;;;;;126.60;61.92;;;7.50;99.90;;;;;;5059182;28;20485;-83
2023/04/23 04:49:44;;;;;;;121.90;61.58;;;7.50;99.90;;;;;;5047465;28;20033;-83
2023/04/23 04:52:10;;;;;;;117.00;60.60;;;7.50;99.90;;;;;;5068688;28;20995;-83
2023/04/23 04:54:36;;;;;;;153.77;68.03;;;7.60;99.90;;;;;;5067571;28;20035;-84
2023/04/23 04:57:01;;;;;;;131.07;65.05;;;7.60;99.90;;;;;;5050906;28;20108;-81
2023/04/23 04:59:27;;;;;;;124.95;62.47;;;7.70;99.90;;;;;;5056746;28;20477;-82
2023/04/23 05:01:53;;;;;;;128.23;62.22;;;7.70;99.90;;;;;;5049156;28;20569;-82
2023/04/23 05:04:18;;;;;;;131.10;63.15;;;7.80;99.90;;;;;;5043703;28;20153;-83
2023/04/23 05:06:44;;;;;;;124.93;61.90;;;7.80;99.90;;;;;;5046894;28;20040;-83
2023/04/23 05:09:10;;;;;;;128.63;62.78;;;7.80;99.90;;;;;;5053612;28;20036;-83
2023/04/23 05:11:36;;;;;;;109.68;57.92;;;7.80;99.90;;;;;;5046041;28;20029;-83
2023/04/23 05:14:03;;;;;;;136.38;66.78;;;7.90;99.90;;;;;;5066059;28;20043;-83
2023/04/23 05:16:29;;;;;;;127.95;62.58;;;7.90;99.90;;;;;;5052876;28;20078;-83
2023/04/23 05:18:55;;;;;;;125.72;63.20;;;8.00;99.90;;;;;;5059900;28;20075;-83
2023/04/23 05:21:21;;;;;;;126.32;65.00;;;8.00;99.90;;;;;;5068811;28;20527;-84
2023/04/23 05:23:47;;;;;;;152.75;68.13;;;8.00;99.90;;;;;;5050880;28;20043;-81
2023/04/23 05:26:13;;;;;;;122.57;62.38;;;8.10;99.90;;;;;;5040379;28;20492;-83
2023/04/23 05:28:38;;;;;;;118.05;62.22;;;8.10;99.90;;;;;;5065144;28;20113;-83
2023/04/23 05:31:04;;;;;;;104.47;57.38;;;8.10;99.90;;;;;;5047412;28;20036;-82
2023/04/23 05:33:30;;;;;;;109.10;56.35;;;8.20;99.90;;;;;;5061583;28;20028;-84
2023/04/23 05:35:56;;;;;;;105.03;57.28;;;8.20;99.90;;;;;;5047591;28;20111;-83
2023/04/23 05:38:22;;;;;;;104.43;57.08;;;8.30;99.90;;;;;;5063429;28;20128;-82
2023/04/23 05:40:48;;;;;;;110.70;58.38;;;8.30;99.90;;;;;;5063948;28;20040;-83
2023/04/23 05:43:13;;;;;;;108.30;56.90;;;8.30;99.90;;;;;;5058795;28;20475;-82
2023/04/23 05:45:39;;;;;;;122.72;60.92;;;8.30;99.90;;;;;;5064996;28;20124;-82
2023/04/23 05:48:05;;;;;;;104.70;56.90;;;8.30;99.90;;;;;;5077715;28;20493;-82
2023/04/23 05:50:30;;;;;;;100.90;52.88;;;8.30;99.90;;;;;;5063536;28;20070;-82
2023/04/23 05:52:56;;;;;;;102.90;55.10;;;8.40;99.90;;;;;;5046057;28;20035;-83
2023/04/23 05:55:22;;;;;;;103.78;54.10;;;8.40;99.90;;;;;;5048657;28;20032;-83
2023/04/23 05:57:48;;;;;;;95.50;52.63;;;8.50;99.90;;;;;;5061034;28;20081;-83
2023/04/23 06:00:15;;;;;;;100.35;54.78;;;8.50;99.90;;;;;;5060792;28;20134;-82
2023/04/23 06:02:41;;;;;;;104.40;55.38;;;8.60;99.90;;;;;;5062653;28;20036;-82
2023/04/23 06:05:08;;;;;;;94.65;52.55;;;8.60;99.90;;;;;;5063844;28;20088;-81
2023/04/23 06:07:33;;;;;;;99.55;53.13;;;8.70;99.90;;;;;;5061643;28;20395;-82
2023/04/23 06:09:59;;;;;;;96.72;52.70;;;8.70;99.90;;;;;;5059173;28;20040;-82
2023/04/23 06:12:25;;;;;;;109.05;56.97;;;8.80;99.90;;;;;;5059184;28;20032;-84
2023/04/23 06:14:54;;;;;;;97.30;54.00;;;8.90;99.90;;;;;;5062935;28;20072;-84
2023/04/23 06:17:19;;;;;;;96.40;53.10;;;8.90;99.90;;;;;;5044277;28;20044;-82
2023/04/23 06:19:45;;;;;;;104.97;53.60;;;9.00;99.90;;;;;;5061536;28;20039;-81
2023/04/23 06:22:10;;;;;;;100.70;51.72;;;9.10;99.90;;;;;;5044525;28;20119;-83
2023/04/23 06:24:36;;;;;;;88.97;50.08;;;9.20;99.90;;;;;;5061633;28;20639;-81
2023/04/23 06:27:02;;;;;;;90.07;49.38;;;9.30;99.90;;;;;;5048719;28;20032;-82
2023/04/23 06:29:28;;;;;;;89.95;51.03;;;9.30;99.90;;;;;;5059946;28;20170;-83
2023/04/23 06:32:01;;;;;;;87.20;49.05;;;9.40;99.90;;;;;;5060372;28;20032;-82
2023/04/23 06:34:27;;;;;;;81.78;47.58;;;9.50;99.90;;;;;;5065929;28;20044;-84
2023/04/23 06:36:53;;;;;;;81.57;46.63;;;9.60;99.90;;;;;;5066499;28;20036;-87
2023/04/23 06:39:18;;;;;;;84.40;47.78;;;9.60;99.90;;;;;;5073408;28;20040;-82
2023/04/23 06:41:44;;;;;;;87.18;48.70;;;9.70;99.90;;;;;;5065039;28;20040;-82
2023/04/23 06:44:10;;;;;;;82.30;45.33;;;9.80;99.90;;;;;;5064898;28;20032;-78
2023/04/23 06:46:35;;;;;;;82.97;45.33;;;9.90;99.90;;;;;;5058707;28;20032;-83
2023/04/23 06:49:01;;;;;;;80.28;45.70;;;9.90;99.90;;;;;;5066488;28;20036;-81
2023/04/23 06:51:27;;;;;;;71.72;41.42;;;10.10;99.90;;;;;;5054126;28;20098;-81
2023/04/23 06:53:53;;;;;;;70.47;42.00;;;10.20;99.90;;;;;;5066070;28;20039;-80
2023/04/23 06:56:20;;;;;;;65.85;39.33;;;10.30;99.90;;;;;;5068602;28;20040;-82
2023/04/23 06:58:46;;;;;;;58.63;36.95;;;10.40;99.90;;;;;;5046928;28;20033;-80
2023/04/23 07:01:12;;;;;;;58.10;37.20;;;10.50;99.90;;;;;;5053431;28;20047;-81
2023/04/23 07:03:37;;;;;;;59.40;36.53;;;10.60;99.90;;;;;;5062539;28;20036;-81
2023/04/23 07:06:03;;;;;;;57.13;35.67;;;10.80;99.90;;;;;;5055950;28;20044;-81
2023/04/23 07:08:29;;;;;;;61.05;37.55;;;10.80;99.90;;;;;;5054469;28;20032;-79
2023/04/23 07:10:54;;;;;;;55.38;36.28;;;10.90;99.90;;;;;;5057952;28;20486;-81
2023/04/23 07:13:20;;;;;;;56.08;34.70;;;11.00;99.90;;;;;;5044472;28;20029;-81
2023/04/23 07:15:46;;;;;;;52.85;34.58;;;11.10;99.90;;;;;;5062530;28;20036;-80
2023/04/23 07:18:11;;;;;;;51.15;34.08;;;11.20;99.90;;;;;;5056844;28;20035;-80
2023/04/23 07:20:37;;;;;;;50.33;32.70;;;11.30;99.90;;;;;;5075125;28;20517;-80
2023/04/23 07:23:03;;;;;;;50.40;33.22;;;11.40;99.90;;;;;;5070542;28;20062;-81
2023/04/23 07:25:30;;;;;;;51.95;33.88;;;11.40;99.90;;;;;;5064833;28;20033;-81
2023/04/23 07:27:55;;;;;;;52.83;34.97;;;11.40;99.90;;;;;;5072515;28;20119;-80
2023/04/23 07:30:22;;;;;;;49.70;33.72;;;11.50;99.90;;;;;;5049361;28;20556;-80
2023/04/23 07:32:48;;;;;;;48.53;34.30;;;11.50;99.90;;;;;;5061720;28;20086;-80
2023/04/23 07:35:14;;;;;;;49.67;33.97;;;11.50;99.90;;;;;;5051370;28;20511;-80
2023/04/23 07:37:39;;;;;;;50.88;33.10;;;11.70;99.90;;;;;;5056048;28;20029;-81
2023/04/23 07:40:06;;;;;;;50.75;34.38;;;11.80;99.90;;;;;;5063678;28;20040;-81
2023/04/23 07:42:32;;;;;;;47.25;32.53;;;12.00;99.90;;;;;;5058064;28;20066;-80
2023/04/23 07:44:57;;;;;;;51.22;33.85;;;12.20;99.90;;;;;;5059919;28;20484;-79
2023/04/23 07:47:23;;;;;;;49.50;33.08;;;12.40;99.90;;;;;;5046860;28;20524;-80
2023/04/23 07:49:48;;;;;;;42.75;30.90;;;12.50;99.90;;;;;;5048106;28;20055;-81
2023/04/23 07:52:15;;;;;;;42.38;31.42;;;12.70;99.90;;;;;;5064513;28;20402;-80
2023/04/23 07:54:41;;;;;;;46.42;31.85;;;12.80;99.90;;;;;;5058199;28;20059;-81
2023/04/23 07:57:07;;;;;;;45.50;32.40;;;12.90;99.90;;;;;;5055046;28;20492;-81
2023/04/23 07:59:33;;;;;;;42.13;28.98;;;13.00;99.90;;;;;;5069377;28;20036;-81
2023/04/23 08:01:58;;;;;;;38.65;28.70;;;13.10;99.90;;;;;;5063770;28;20404;-80
2023/04/23 08:04:24;;;;;;;40.03;29.83;;;13.20;99.90;;;;;;5072689;28;20085;-81
2023/04/23 08:06:50;;;;;;;39.63;28.35;;;13.50;99.90;;;;;;5066328;28;20036;-78
2023/04/23 08:09:15;;;;;;;38.67;27.15;;;13.70;99.90;;;;;;5070528;28;20112;-81
2023/04/23 08:11:41;;;;;;;36.08;27.70;;;13.70;99.90;;;;;;5069803;28;20036;-81
2023/04/23 08:14:07;;;;;;;38.20;26.63;;;13.80;99.90;;;;;;5051838;28;20032;-80
2023/04/23 08:16:32;;;;;;;37.90;27.05;;;13.90;99.90;;;;;;5061922;28;20044;-81
2023/04/23 08:18:58;;;;;;;36.83;27.10;;;14.10;99.90;;;;;;5067993;28;20032;-80
2023/04/23 08:21:25;;;;;;;31.83;25.63;;;14.20;99.90;;;;;;5069409;28;20064;-81
2023/04/23 08:23:51;;;;;;;36.38;27.00;;;14.20;99.90;;;;;;5070094;28;20496;-80
2023/04/23 08:26:17;;;;;;;33.70;25.33;;;14.30;99.90;;;;;;5064971;28;20130;-80
2023/04/23 08:28:42;;;;;;;32.70;25.48;;;14.60;99.90;;;;;;5068729;28;20032;-81
2023/04/23 08:31:08;;;;;;;27.30;23.60;;;14.80;99.90;;;;;;5066470;28;20028;-80
2023/04/23 08:33:33;;;;;;;33.67;24.73;;;14.90;99.90;;;;;;5057026;28;20036;-80
2023/04/23 08:35:59;;;;;;;31.40;24.33;;;15.20;99.90;;;;;;5071993;28;20496;-78
2023/04/23 08:38:24;;;;;;;30.95;23.55;;;15.20;99.90;;;;;;5073242;28;20512;-80
2023/04/23 08:40:55;;;;;;;32.00;24.70;;;15.40;99.90;;;;;;5074250;28;20031;-80
2023/04/23 08:43:30;;;;;;;28.75;24.08;;;15.60;99.90;;;;;;5051954;28;20043;-79
2023/04/23 08:46:03;;;;;;;30.65;23.23;;;15.60;99.90;;;;;;5065744;28;20039;-80
2023/04/23 08:48:29;;;;;;;26.27;21.00;;;15.70;99.90;;;;;;5072121;28;20040;-81
2023/04/23 08:50:58;;;;;;;27.30;21.98;;;15.60;99.90;;;;;;5060641;28;20153;-80
2023/04/23 08:53:26;;;;;;;28.50;22.77;;;15.70;99.90;;;;;;5064983;28;20033;-79
2023/04/23 08:55:54;;;;;;;28.40;23.15;;;15.80;99.90;;;;;;5073526;28;20058;-81
2023/04/23 08:58:20;;;;;;;24.05;20.05;;;16.00;99.90;;;;;;5062152;28;20044;-80
2023/04/23 09:00:47;;;;;;;24.75;19.35;;;16.20;99.90;;;;;;5060405;28;20074;-80
2023/04/23 09:03:15;;;;;;;23.08;20.10;;;16.60;99.90;;;;;;5074847;28;20044;-81
2023/04/23 09:05:41;;;;;;;21.15;17.35;;;16.80;99.90;;;;;;5048007;28;20033;-81
2023/04/23 09:08:07;;;;;;;18.95;16.95;;;17.00;99.90;;;;;;5055945;28;20048;-81
2023/04/23 09:10:36;;;;;;;21.88;17.67;;;17.20;99.90;;;;;;5066533;28;20378;-81
2023/04/23 09:13:02;;;;;;;20.50;17.75;;;17.10;99.90;;;;;;5044534;28;20060;-81
2023/04/23 09:15:27;;;;;;;18.02;16.13;;;17.30;99.90;;;;;;5059775;28;20048;-82
2023/04/23 09:17:53;;;;;;;20.30;15.30;;;17.40;99.90;;;;;;5061002;28;20114;-80
2023/04/23 09:20:18;;;;;;;19.42;15.32;;;17.50;99.90;;;;;;5056327;28;20052;-80
2023/04/23 09:22:49;;;;;;;18.05;14.40;;;17.50;99.90;;;;;;5056722;28;20100;-80
2023/04/23 09:25:17;;;;;;;17.08;14.88;;;17.80;99.90;;;;;;5068877;28;20036;-80
2023/04/23 09:27:43;;;;;;;18.58;14.05;;;18.10;99.90;;;;;;5081679;28;20045;-79
2023/04/23 09:30:10;;;;;;;16.77;14.70;;;18.20;99.90;;;;;;5056496;28;20040;-81
2023/04/23 09:32:37;;;;;;;22.00;14.50;;;18.60;99.90;;;;;;5066743;28;20387;-81
2023/04/23 09:35:05;;;;;;;15.68;13.02;;;18.30;99.90;;;;;;5075684;28;20032;-81
2023/04/23 09:37:31;;;;;;;14.13;12.15;;;18.00;99.90;;;;;;5068831;28;20047;-81
2023/04/23 09:40:03;;;;;;;13.18;10.52;;;17.90;99.90;;;;;;5062093;28;20051;-79
2023/04/23 09:42:30;;;;;;;13.02;11.60;;;18.20;99.90;;;;;;5046029;28;20028;-79
2023/04/23 09:45:07;;;;;;;15.85;11.30;;;18.80;99.90;;;;;;5065449;28;20032;-78
2023/04/23 09:47:34;;;;;;;13.45;10.65;;;19.00;99.90;;;;;;5084419;28;20044;-79
2023/04/23 09:50:00;;;;;;;12.38;10.07;;;18.70;99.90;;;;;;5079958;28;20051;-77
2023/04/23 09:52:28;;;;;;;12.50;10.15;;;18.60;99.90;;;;;;5054292;28;20039;-82
2023/04/23 09:54:58;;;;;;;11.13;8.82;;;18.20;99.90;;;;;;5052498;28;20031;-81
2023/04/23 09:57:26;;;;;;;13.52;9.65;;;18.30;99.90;;;;;;5060500;28;20036;-82
2023/04/23 09:59:55;;;;;;;9.05;8.15;;;18.60;99.90;;;;;;5065681;28;20060;-82
2023/04/23 10:02:26;;;;;;;8.93;7.97;;;19.20;99.90;;;;;;5076155;28;20114;-83
2023/04/23 10:04:52;;;;;;;10.77;8.07;;;19.70;99.90;;;;;;5069856;28;20040;-82
2023/04/23 10:07:18;;;;;;;10.40;8.35;;;20.00;99.90;;;;;;5062958;28;20040;-82
2023/04/23 10:09:44;;;;;;;9.35;7.88;;;20.00;99.90;;;;;;5076661;28;20039;-86
2023/04/23 10:12:10;;;;;;;12.05;8.57;;;19.80;99.90;;;;;;5075095;28;20035;-81
2023/04/23 10:14:38;;;;;;;8.30;7.20;;;20.20;99.90;;;;;;5060977;28;20021;-80
2023/04/23 10:17:04;;;;;;;9.73;7.60;;;20.40;99.90;;;;;;5042359;28;20644;-83
2023/04/23 10:19:32;;;;;;;9.60;7.95;;;20.40;99.90;;;;;;5061361;28;20336;-84
2023/04/23 10:22:04;;;;;;;8.13;6.68;;;20.50;99.90;;;;;;5066943;28;20036;-86
2023/04/23 10:24:40;;;;;;;9.32;6.32;;;20.50;99.90;;;;;;5055386;28;20047;-85
2023/04/23 10:27:10;;;;;;;9.80;5.18;;;20.50;99.90;;;;;;5061353;28;20098;-84
2023/04/23 10:29:36;;;;;;;7.32;4.93;;;20.20;99.90;;;;;;5068287;28;20067;-84
2023/04/23 10:32:10;;;;;;;8.20;4.40;;;19.90;99.90;;;;;;5055929;28;20043;-88
2023/04/23 10:34:37;;;;;;;5.63;4.15;;;20.00;99.90;;;;;;5060646;28;20062;-83
2023/04/23 10:37:03;;;;;;;8.70;4.45;;;20.30;99.90;;;;;;5058254;28;20421;-82
2023/04/23 10:39:35;;;;;;;7.35;4.28;;;20.20;99.90;;;;;;5056742;28;20055;-80
2023/04/23 10:42:05;;;;;;;8.20;4.70;;;20.20;99.90;;;;;;5078058;28;20040;-80
2023/04/23 10:44:37;;;;;;;6.65;4.30;;;20.60;99.90;;;;;;5096126;28;20056;-80
2023/04/23 10:47:05;;;;;;;4.60;3.20;;;20.30;99.90;;;;;;5091291;28;20047;-83
2023/04/23 10:49:33;;;;;;;6.10;2.83;;;20.60;99.90;;;;;;5054807;28;20060;-82
2023/04/23 10:52:09;;;;;;;8.73;3.90;;;20.70;99.90;;;;;;5059530;28;20039;-82
2023/04/23 10:54:36;;;;;;;6.22;4.03;;;20.20;99.90;;;;;;5052136;28;20036;-82
2023/04/23 10:57:11;;;;;;;6.50;3.87;;;20.00;99.90;;;;;;5055541;28;20408;-83
2023/04/23 10:59:52;;;;;;;5.50;3.58;;;20.30;99.90;;;;;;5066566;28;20496;-82
2023/04/23 11:02:28;;;;;;;;;;;;;;;;;;;;;
2023/04/23 11:04:55;;;;;;;5.68;3.28;;;20.10;99.90;;;;;;5080005;28;20110;-84
2023/04/23 11:07:28;;;;;;;4.70;3.13;;;20.00;99.90;;;;;;5064463;28;20040;-78
2023/04/23 11:09:58;;;;;;;4.63;2.70;;;20.50;99.90;;;;;;5062917;28;20131;-77
2023/04/23 11:12:27;;;;;;;4.43;2.90;;;20.80;75.50;;;;;;5078489;28;20032;-77
2023/04/23 11:14:53;;;;;;;6.65;2.63;;;21.10;94.70;;;;;;5077892;28;20075;-77
2023/04/23 11:17:31;;;;;;;4.85;2.47;;;21.50;88.20;;;;;;5076730;28;20116;-77
2023/04/23 11:20:12;;;;;;;4.07;2.40;;;22.00;71.40;;;;;;5078362;28;20043;-77
2023/04/23 11:22:41;;;;;;;3.50;2.30;;;22.50;71.80;;;;;;5060049;28;20092;-78
2023/04/23 11:25:12;;;;;;;3.38;1.63;;;22.50;64.50;;;;;;5061304;28;21004;-77
2023/04/23 11:27:40;;;;;;;5.60;2.33;;;22.60;59.60;;;;;;5082620;28;20071;-78
2023/04/23 11:30:36;;;;;;;3.65;1.92;;;22.80;60.50;;;;;;5047951;28;20405;-76
2023/04/23 11:33:02;;;;;;;3.30;1.77;;;22.60;59.30;;;;;;5067264;28;20131;-76
2023/04/23 11:35:29;;;;;;;3.33;1.80;;;22.90;59.70;;;;;;5083362;28;20033;-77
2023/04/23 11:37:55;;;;;;;4.28;1.83;;;22.90;57.40;;;;;;5065717;28;20047;-75
2023/04/23 11:40:23;;;;;;;6.65;2.15;;;23.30;56.30;;;;;;5070262;28;20040;-77
2023/04/23 11:42:56;;;;;;;3.25;1.80;;;23.20;54.60;;;;;;5060759;28;20062;-76
2023/04/23 11:45:27;;;;;;;4.65;2.00;;;22.60;52.20;;;;;;5056275;28;20037;-76
2023/04/23 11:47:57;;;;;;;4.43;1.77;;;22.10;54.00;;;;;;5051018;28;20044;-76
2023/04/23 11:50:31;;;;;;;4.53;1.70;;;22.10;53.90;;;;;;5068512;28;20166;-76
2023/04/23 11:53:06;;;;;;;3.55;1.85;;;22.20;53.90;;;;;;5081967;28;20046;-76
2023/04/23 11:55:31;;;;;;;3.60;2.17;;;22.30;54.20;;;;;;5088235;28;20032;-76
2023/04/23 11:57:57;;;;;;;3.70;1.90;;;22.50;54.40;;;;;;5071006;28;20059;-76
2023/04/23 12:00:25;;;;;;;4.00;1.90;;;23.00;55.50;;;;;;5063357;28;20412;-77
2023/04/23 12:03:02;;;;;;;3.40;1.80;;;23.20;53.10;;;;;;5048322;28;20032;-77
2023/04/23 12:05:29;;;;;;;4.28;1.80;;;23.90;53.30;;;;;;5066808;28;20043;-79
2023/04/23 12:08:07;;;;;;;3.20;2.00;;;24.30;51.30;;;;;;5062775;28;20059;-76
2023/04/23 12:10:40;;;;;;;5.38;1.75;;;23.70;50.10;;;;;;5059099;28;20124;-77
2023/04/23 12:13:05;;;;;;;6.82;2.38;;;23.50;51.40;;;;;;5067431;28;20067;-76
2023/04/23 12:15:31;;;;;;;4.00;2.03;;;23.40;51.50;;;;;;5069195;28;20512;-77
2023/04/23 12:18:09;;;;;;;3.25;2.10;;;23.80;52.00;;;;;;5061520;28;20093;-75
2023/04/23 12:20:36;;;;;;;4.57;2.20;;;24.10;49.60;;;;;;5054248;28;20511;-86
2023/04/23 12:23:10;;;;;;;4.47;1.92;;;23.80;50.10;;;;;;5059912;28;20500;-88
2023/04/23 12:25:41;;;;;;;4.00;1.80;;;23.40;49.80;;;;;;5075128;28;20044;-75
2023/04/23 12:28:09;;;;;;;3.30;2.10;;;23.00;50.20;;;;;;5051072;28;20123;-87
2023/04/23 12:30:43;;;;;;;4.30;2.08;;;22.30;50.00;;;;;;5072072;28;20389;-87
2023/04/23 12:33:10;;;;;;;4.68;2.33;;;22.40;50.10;;;;;;5049304;28;20044;-86
2023/04/23 12:35:50;;;;;;;3.28;2.08;;;22.40;50.40;;;;;;5066078;28;20568;-86